sensor_id;sensor_type;location;lat;lon;timestamp;temperature;humidity
23010;DHT22;11671;49.990;8.028;2023-07-29T00:01:41;19.80;99.90
23010;DHT22;11671;49.990;8.028;2023-07-29T00:04:07;19.90;99.90
23010;DHT22;11671;49.990;8.028;2023-07-29T00:06:34;19.80;99.90
23010;DHT22;11671;49.990;8.028;2023-07-29T00:09:00;19.70;99.90
23010;DHT22;11671;49.990;8.028;2023-07-29T00:11:26;19.60;99.90
23010;DHT22;11671;49.990;8.028;2023-07-29T00:13:51;19.70;99.90
23010;DHT22;11671;49.990;8.028;2023-07-29T00:16:18;19.70;99.90
23010;DHT22;11671;49.990;8.028;2023-07-29T00:18:47;19.70;99.90
23010;DHT22;11671;49.990;8.028;2023-07-29T00:21:13;19.80;99.90
23010;DHT22;11671;49.990;8.028;2023-07-29T00:23:38;19.70;99.90
23010;DHT22;11671;49.990;8.028;2023-07-29T00:26:04;19.70;99.90
23010;DHT22;11671;49.990;8.028;2023-07-29T00:28:29;19.80;99.90
23010;DHT22;11671;49.990;8.028;2023-07-29T00:30:55;19.80;99.90
23010;DHT22;11671;49.990;8.028;2023-07-29T00:33:21;19.80;99.90
23010;DHT22;11671;49.990;8.028;2023-07-29T00:35:46;19.80;99.90
23010;DHT22;11671;49.990;8.028;2023-07-29T00:38:12;19.80;99.90
23010;DHT22;11671;49.990;8.028;2023-07-29T00:40:37;19.80;99.90
23010;DHT22;11671;49.990;8.028;2023-07-29T00:43:03;19.70;99.90
23010;DHT22;11671;49.990;8.028;2023-07-29T00:45:29;19.70;99.90
23010;DHT22;11671;49.990;8.028;2023-07-29T00:47:55;19.70;99.90
23010;DHT22;11671;49.990;8.028;2023-07-29T00:50:20;19.70;99.90
23010;DHT22;11671;49.990;8.028;2023-07-29T00:52:46;19.60;99.90
23010;DHT22;11671;49.990;8.028;2023-07-29T00:55:12;19.60;99.90
23010;DHT22;11671;49.990;8.028;2023-07-29T00:57:37;19.60;99.90
23010;DHT22;11671;49.990;8.028;2023-07-29T01:00:05;19.50;99.90
23010;DHT22;11671;49.990;8.028;2023-07-29T01:02:30;19.40;99.90
23010;DHT22;11671;49.990;8.028;2023-07-29T01:04:58;19.40;99.90
23010;DHT22;11671;49.990;8.028;2023-07-29T01:10:10;19.40;99.90
23010;DHT22;11671;49.990;8.028;2023-07-29T01:18:13;19.50;99.90
23010;DHT22;11671;49.990;8.028;2023-07-29T01:20:42;19.50;99.90
23010;DHT22;11671;49.990;8.028;2023-07-29T01:23:09;19.60;99.90
23010;DHT22;11671;49.990;8.028;2023-07-29T01:25:34;19.50;99.90
23010;DHT22;11671;49.990;8.028;2023-07-29T01:28:00;19.50;99.90
23010;DHT22;11671;49.990;8.028;2023-07-29T01:30:28;19.50;99.90
23010;DHT22;11671;49.990;8.028;2023-07-29T01:33:09;19.40;99.90
23010;DHT22;11671;49.990;8.028;2023-07-29T01:35:46;19.50;99.90
23010;DHT22;11671;49.990;8.028;2023-07-29T01:38:29;19.40;99.90
23010;DHT22;11671;49.990;8.028;2023-07-29T01:40:58;19.40;99.90
23010;DHT22;11671;49.990;8.028;2023-07-29T01:43:27;19.50;99.90
23010;DHT22;11671;49.990;8.028;2023-07-29T01:45:53;19.50;99.90
23010;DHT22;11671;49.990;8.028;2023-07-29T01:48:19;19.50;99.90
23010;DHT22;11671;49.990;8.028;2023-07-29T01:50:45;19.50;99.90
23010;DHT22;11671;49.990;8.028;2023-07-29T01:53:10;19.50;99.90
23010;DHT22;11671;49.990;8.028;2023-07-29T01:55:36;19.50;99.90
23010;DHT22;11671;49.990;8.028;2023-07-29T01:58:01;19.60;99.90
23010;DHT22;11671;49.990;8.028;2023-07-29T02:00:27;19.60;99.90
23010;DHT22;11671;49.990;8.028;2023-07-29T02:02:52;19.60;99.90
23010;DHT22;11671;49.990;8.028;2023-07-29T02:05:18;19.60;99.90
23010;DHT22;11671;49.990;8.028;2023-07-29T02:07:43;19.60;99.90
23010;DHT22;11671;49.990;8.028;2023-07-29T02:10:09;19.70;99.90
23010;DHT22;11671;49.990;8.028;2023-07-29T02:12:34;19.70;99.90
23010;DHT22;11671;49.990;8.028;2023-07-29T02:15:00;19.70;99.90
23010;DHT22;11671;49.990;8.028;2023-07-29T02:17:25;19.60;99.90
23010;DHT22;11671;49.990;8.028;2023-07-29T02:19:51;19.60;99.90
23010;DHT22;11671;49.990;8.028;2023-07-29T02:22:17;19.70;99.90
23010;DHT22;11671;49.990;8.028;2023-07-29T02:24:43;19.70;99.90
23010;DHT22;11671;49.990;8.028;2023-07-29T02:27:09;19.70;99.90
23010;DHT22;11671;49.990;8.028;2023-07-29T02:29:35;19.70;99.90
23010;DHT22;11671;49.990;8.028;2023-07-29T02:32:00;19.60;99.90
23010;DHT22;11671;49.990;8.028;2023-07-29T02:34:26;19.50;99.90
23010;DHT22;11671;49.990;8.028;2023-07-29T02:36:52;19.50;99.90
23010;DHT22;11671;49.990;8.028;2023-07-29T02:39:17;19.50;99.90
23010;DHT22;11671;49.990;8.028;2023-07-29T02:41:43;19.50;99.90
23010;DHT22;11671;49.990;8.028;2023-07-29T02:44:08;19.50;99.90
23010;DHT22;11671;49.990;8.028;2023-07-29T02:46:34;19.60;99.90
23010;DHT22;11671;49.990;8.028;2023-07-29T02:49:01;19.60;99.90
23010;DHT22;11671;49.990;8.028;2023-07-29T02:51:26;19.60;99.90
23010;DHT22;11671;49.990;8.028;2023-07-29T02:53:52;19.60;99.90
23010;DHT22;11671;49.990;8.028;2023-07-29T02:56:17;19.70;99.90
23010;DHT22;11671;49.990;8.028;2023-07-29T02:58:43;19.70;99.90
23010;DHT22;11671;49.990;8.028;2023-07-29T03:01:09;19.70;99.90
23010;DHT22;11671;49.990;8.028;2023-07-29T03:03:35;19.70;99.90
23010;DHT22;11671;49.990;8.028;2023-07-29T03:06:05;19.60;99.90
23010;DHT22;11671;49.990;8.028;2023-07-29T03:08:31;19.50;99.90
23010;DHT22;11671;49.990;8.028;2023-07-29T03:10:57;19.50;99.90
23010;DHT22;11671;49.990;8.028;2023-07-29T03:13:23;19.50;99.90
23010;DHT22;11671;49.990;8.028;2023-07-29T03:15:48;19.50;99.90
23010;DHT22;11671;49.990;8.028;2023-07-29T03:18:14;19.50;99.90
23010;DHT22;11671;49.990;8.028;2023-07-29T03:20:40;19.60;99.90
23010;DHT22;11671;49.990;8.028;2023-07-29T03:23:06;19.70;99.90
23010;DHT22;11671;49.990;8.028;2023-07-29T03:25:31;19.70;99.90
23010;DHT22;11671;49.990;8.028;2023-07-29T03:27:57;19.80;99.90
23010;DHT22;11671;49.990;8.028;2023-07-29T03:30:23;19.80;99.90
23010;DHT22;11671;49.990;8.028;2023-07-29T03:32:49;19.80;99.90
23010;DHT22;11671;49.990;8.028;2023-07-29T03:35:15;19.80;99.90
23010;DHT22;11671;49.990;8.028;2023-07-29T03:37:40;19.70;99.90
23010;DHT22;11671;49.990;8.028;2023-07-29T03:40:07;19.70;99.90
23010;DHT22;11671;49.990;8.028;2023-07-29T03:42:34;19.70;99.90
23010;DHT22;11671;49.990;8.028;2023-07-29T03:45:00;19.60;99.90
23010;DHT22;11671;49.990;8.028;2023-07-29T03:47:25;19.50;99.90
23010;DHT22;11671;49.990;8.028;2023-07-29T03:49:51;19.50;99.90
23010;DHT22;11671;49.990;8.028;2023-07-29T03:52:16;19.50;99.90
23010;DHT22;11671;49.990;8.028;2023-07-29T03:54:42;19.50;99.90
23010;DHT22;11671;49.990;8.028;2023-07-29T03:57:07;19.50;99.90
23010;DHT22;11671;49.990;8.028;2023-07-29T03:59:33;19.60;99.90
23010;DHT22;11671;49.990;8.028;2023-07-29T04:01:59;19.70;99.90
23010;DHT22;11671;49.990;8.028;2023-07-29T04:04:24;19.60;99.90
23010;DHT22;11671;49.990;8.028;2023-07-29T04:06:50;19.60;99.90
23010;DHT22;11671;49.990;8.028;2023-07-29T04:09:15;19.70;99.90
23010;DHT22;11671;49.990;8.028;2023-07-29T04:11:41;19.80;99.90
23010;DHT22;11671;49.990;8.028;2023-07-29T04:14:06;19.80;99.90
23010;DHT22;11671;49.990;8.028;2023-07-29T04:16:32;19.80;99.90
23010;DHT22;11671;49.990;8.028;2023-07-29T04:18:57;19.90;99.90
23010;DHT22;11671;49.990;8.028;2023-07-29T04:21:23;19.90;99.90
23010;DHT22;11671;49.990;8.028;2023-07-29T04:23:48;19.90;99.90
23010;DHT22;11671;49.990;8.028;2023-07-29T04:26:14;19.90;99.90
23010;DHT22;11671;49.990;8.028;2023-07-29T04:28:39;19.90;99.90
23010;DHT22;11671;49.990;8.028;2023-07-29T04:31:05;20.00;99.90
23010;DHT22;11671;49.990;8.028;2023-07-29T04:33:31;20.00;99.90
23010;DHT22;11671;49.990;8.028;2023-07-29T04:35:56;20.00;99.90
23010;DHT22;11671;49.990;8.028;2023-07-29T04:38:23;20.00;99.90
23010;DHT22;11671;49.990;8.028;2023-07-29T04:40:50;20.00;99.90
23010;DHT22;11671;49.990;8.028;2023-07-29T04:43:15;20.00;99.90
23010;DHT22;11671;49.990;8.028;2023-07-29T04:45:44;20.00;99.90
23010;DHT22;11671;49.990;8.028;2023-07-29T04:48:09;20.10;99.90
23010;DHT22;11671;49.990;8.028;2023-07-29T04:50:35;20.20;99.90
23010;DHT22;11671;49.990;8.028;2023-07-29T04:53:00;20.30;99.90
23010;DHT22;11671;49.990;8.028;2023-07-29T04:55:26;20.40;99.90
23010;DHT22;11671;49.990;8.028;2023-07-29T04:57:51;20.50;99.90
23010;DHT22;11671;49.990;8.028;2023-07-29T05:00:17;20.60;99.90
23010;DHT22;11671;49.990;8.028;2023-07-29T05:02:43;20.60;99.90
23010;DHT22;11671;49.990;8.028;2023-07-29T05:05:08;20.70;99.90
23010;DHT22;11671;49.990;8.028;2023-07-29T05:07:34;20.80;99.90
23010;DHT22;11671;49.990;8.028;2023-07-29T05:09:59;20.90;99.90
23010;DHT22;11671;49.990;8.028;2023-07-29T05:12:25;21.10;99.90
23010;DHT22;11671;49.990;8.028;2023-07-29T05:14:51;21.30;99.90
23010;DHT22;11671;49.990;8.028;2023-07-29T05:17:16;21.30;99.90
23010;DHT22;11671;49.990;8.028;2023-07-29T05:19:42;21.30;99.90
23010;DHT22;11671;49.990;8.028;2023-07-29T05:22:07;21.30;99.90
23010;DHT22;11671;49.990;8.028;2023-07-29T05:24:33;21.20;99.90
23010;DHT22;11671;49.990;8.028;2023-07-29T05:26:58;21.20;99.90
23010;DHT22;11671;49.990;8.028;2023-07-29T05:29:24;21.20;99.90
23010;DHT22;11671;49.990;8.028;2023-07-29T05:31:50;21.20;99.90
23010;DHT22;11671;49.990;8.028;2023-07-29T05:34:15;21.10;99.90
23010;DHT22;11671;49.990;8.028;2023-07-29T05:36:41;21.10;99.90
23010;DHT22;11671;49.990;8.028;2023-07-29T05:39:06;21.00;99.90
23010;DHT22;11671;49.990;8.028;2023-07-29T05:41:32;21.00;99.90
23010;DHT22;11671;49.990;8.028;2023-07-29T05:43:58;20.90;99.90
23010;DHT22;11671;49.990;8.028;2023-07-29T05:46:23;20.90;99.90
23010;DHT22;11671;49.990;8.028;2023-07-29T05:48:49;21.00;99.90
23010;DHT22;11671;49.990;8.028;2023-07-29T05:51:14;20.90;99.90
23010;DHT22;11671;49.990;8.028;2023-07-29T05:53:40;20.90;99.90
23010;DHT22;11671;49.990;8.028;2023-07-29T05:56:05;20.80;99.90
23010;DHT22;11671;49.990;8.028;2023-07-29T05:58:31;20.80;99.90
23010;DHT22;11671;49.990;8.028;2023-07-29T06:00:57;20.80;99.90
23010;DHT22;11671;49.990;8.028;2023-07-29T06:03:23;20.70;99.90
23010;DHT22;11671;49.990;8.028;2023-07-29T06:05:48;20.70;99.90
23010;DHT22;11671;49.990;8.028;2023-07-29T06:08:14;20.70;99.90
23010;DHT22;11671;49.990;8.028;2023-07-29T06:10:39;20.70;99.90
23010;DHT22;11671;49.990;8.028;2023-07-29T06:13:05;20.60;99.90
23010;DHT22;11671;49.990;8.028;2023-07-29T06:15:31;20.60;99.90
23010;DHT22;11671;49.990;8.028;2023-07-29T06:17:57;20.60;99.90
23010;DHT22;11671;49.990;8.028;2023-07-29T06:20:22;20.60;99.90
23010;DHT22;11671;49.990;8.028;2023-07-29T06:22:48;20.60;99.90
23010;DHT22;11671;49.990;8.028;2023-07-29T06:25:13;20.50;99.90
23010;DHT22;11671;49.990;8.028;2023-07-29T06:27:39;20.50;99.90
23010;DHT22;11671;49.990;8.028;2023-07-29T06:30:05;20.50;99.90
23010;DHT22;11671;49.990;8.028;2023-07-29T06:32:31;20.60;99.90
23010;DHT22;11671;49.990;8.028;2023-07-29T06:34:57;20.60;99.90
23010;DHT22;11671;49.990;8.028;2023-07-29T06:37:22;20.60;99.90
23010;DHT22;11671;49.990;8.028;2023-07-29T06:39:48;20.60;99.90
23010;DHT22;11671;49.990;8.028;2023-07-29T06:44:40;20.50;99.90
23010;DHT22;11671;49.990;8.028;2023-07-29T06:47:06;20.50;99.90
23010;DHT22;11671;49.990;8.028;2023-07-29T06:49:31;20.60;99.90
23010;DHT22;11671;49.990;8.028;2023-07-29T06:51:57;20.60;99.90
23010;DHT22;11671;49.990;8.028;2023-07-29T06:54:25;20.70;99.90
23010;DHT22;11671;49.990;8.028;2023-07-29T06:56:52;20.70;99.90
23010;DHT22;11671;49.990;8.028;2023-07-29T06:59:18;20.70;99.90
23010;DHT22;11671;49.990;8.028;2023-07-29T07:01:43;20.70;99.90
23010;DHT22;11671;49.990;8.028;2023-07-29T07:04:09;20.70;99.90
23010;DHT22;11671;49.990;8.028;2023-07-29T07:06:35;20.80;99.90
23010;DHT22;11671;49.990;8.028;2023-07-29T07:09:00;20.80;99.90
23010;DHT22;11671;49.990;8.028;2023-07-29T07:11:26;20.80;99.90
23010;DHT22;11671;49.990;8.028;2023-07-29T07:13:51;20.70;99.90
23010;DHT22;11671;49.990;8.028;2023-07-29T07:16:17;20.70;99.90
23010;DHT22;11671;49.990;8.028;2023-07-29T07:18:42;20.70;99.90
23010;DHT22;11671;49.990;8.028;2023-07-29T07:21:08;20.70;99.90
23010;DHT22;11671;49.990;8.028;2023-07-29T07:23:34;20.80;99.90
23010;DHT22;11671;49.990;8.028;2023-07-29T07:25:59;20.80;99.90
23010;DHT22;11671;49.990;8.028;2023-07-29T07:28:25;20.90;99.90
23010;DHT22;11671;49.990;8.028;2023-07-29T07:30:51;21.10;99.90
23010;DHT22;11671;49.990;8.028;2023-07-29T07:33:17;21.30;99.90
23010;DHT22;11671;49.990;8.028;2023-07-29T07:35:43;21.50;99.90
23010;DHT22;11671;49.990;8.028;2023-07-29T07:38:08;21.90;99.90
23010;DHT22;11671;49.990;8.028;2023-07-29T07:40:35;22.40;99.90
23010;DHT22;11671;49.990;8.028;2023-07-29T07:43:01;23.10;99.90
23010;DHT22;11671;49.990;8.028;2023-07-29T07:45:27;23.50;99.90
23010;DHT22;11671;49.990;8.028;2023-07-29T07:47:53;23.80;99.90
23010;DHT22;11671;49.990;8.028;2023-07-29T07:50:21;24.00;99.90
23010;DHT22;11671;49.990;8.028;2023-07-29T07:52:47;24.10;99.90
23010;DHT22;11671;49.990;8.028;2023-07-29T07:55:12;24.30;99.90
23010;DHT22;11671;49.990;8.028;2023-07-29T07:57:38;24.60;99.90
23010;DHT22;11671;49.990;8.028;2023-07-29T08:00:04;24.70;99.90
23010;DHT22;11671;49.990;8.028;2023-07-29T08:02:30;24.60;99.90
23010;DHT22;11671;49.990;8.028;2023-07-29T08:04:56;24.50;99.90
23010;DHT22;11671;49.990;8.028;2023-07-29T08:07:21;24.70;99.90
23010;DHT22;11671;49.990;8.028;2023-07-29T08:09:47;25.10;99.90
23010;DHT22;11671;49.990;8.028;2023-07-29T08:12:13;25.70;99.90
23010;DHT22;11671;49.990;8.028;2023-07-29T08:14:38;26.30;99.90
23010;DHT22;11671;49.990;8.028;2023-07-29T08:17:04;26.50;99.90
23010;DHT22;11671;49.990;8.028;2023-07-29T08:19:30;26.90;99.90
23010;DHT22;11671;49.990;8.028;2023-07-29T08:24:21;27.40;99.90
23010;DHT22;11671;49.990;8.028;2023-07-29T08:26:47;27.80;99.90
23010;DHT22;11671;49.990;8.028;2023-07-29T08:29:13;27.70;99.90
23010;DHT22;11671;49.990;8.028;2023-07-29T08:31:39;27.80;99.90
23010;DHT22;11671;49.990;8.028;2023-07-29T08:34:04;27.70;99.90
23010;DHT22;11671;49.990;8.028;2023-07-29T08:36:30;27.60;99.90
23010;DHT22;11671;49.990;8.028;2023-07-29T08:38:56;27.30;99.90
23010;DHT22;11671;49.990;8.028;2023-07-29T08:41:25;27.20;99.90
23010;DHT22;11671;49.990;8.028;2023-07-29T08:44:12;26.90;99.90
23010;DHT22;11671;49.990;8.028;2023-07-29T08:46:42;26.90;99.90
23010;DHT22;11671;49.990;8.028;2023-07-29T08:49:08;26.80;99.90
23010;DHT22;11671;49.990;8.028;2023-07-29T08:51:34;26.50;99.90
23010;DHT22;11671;49.990;8.028;2023-07-29T08:54:01;26.50;99.90
23010;DHT22;11671;49.990;8.028;2023-07-29T08:56:27;26.60;99.90
23010;DHT22;11671;49.990;8.028;2023-07-29T08:58:53;26.50;99.90
23010;DHT22;11671;49.990;8.028;2023-07-29T09:01:19;26.30;99.90
23010;DHT22;11671;49.990;8.028;2023-07-29T09:03:45;26.60;99.90
23010;DHT22;11671;49.990;8.028;2023-07-29T09:06:12;26.90;99.90
23010;DHT22;11671;49.990;8.028;2023-07-29T09:08:39;27.00;99.90
23010;DHT22;11671;49.990;8.028;2023-07-29T09:11:05;27.00;99.90
23010;DHT22;11671;49.990;8.028;2023-07-29T09:13:31;26.80;99.90
23010;DHT22;11671;49.990;8.028;2023-07-29T09:15:57;26.60;99.90
23010;DHT22;11671;49.990;8.028;2023-07-29T09:18:26;26.50;99.90
23010;DHT22;11671;49.990;8.028;2023-07-29T09:20:53;26.40;99.90
23010;DHT22;11671;49.990;8.028;2023-07-29T09:23:19;26.30;99.90
23010;DHT22;11671;49.990;8.028;2023-07-29T09:25:46;26.30;99.90
23010;DHT22;11671;49.990;8.028;2023-07-29T09:28:16;26.20;99.90
23010;DHT22;11671;49.990;8.028;2023-07-29T09:30:44;25.90;99.90
23010;DHT22;11671;49.990;8.028;2023-07-29T09:33:10;25.70;99.90
23010;DHT22;11671;49.990;8.028;2023-07-29T09:35:36;26.00;99.90
23010;DHT22;11671;49.990;8.028;2023-07-29T09:38:04;26.50;99.90
23010;DHT22;11671;49.990;8.028;2023-07-29T09:40:37;27.00;99.90
23010;DHT22;11671;49.990;8.028;2023-07-29T09:43:04;27.30;99.90
23010;DHT22;11671;49.990;8.028;2023-07-29T09:45:30;27.50;99.90
23010;DHT22;11671;49.990;8.028;2023-07-29T09:47:57;27.70;99.90
23010;DHT22;11671;49.990;8.028;2023-07-29T09:50:24;28.10;99.90
23010;DHT22;11671;49.990;8.028;2023-07-29T09:52:51;28.30;99.90
23010;DHT22;11671;49.990;8.028;2023-07-29T09:55:18;28.40;99.90
23010;DHT22;11671;49.990;8.028;2023-07-29T09:57:44;28.30;99.90
23010;DHT22;11671;49.990;8.028;2023-07-29T10:00:14;28.30;99.90
23010;DHT22;11671;49.990;8.028;2023-07-29T10:02:43;28.30;99.90
23010;DHT22;11671;49.990;8.028;2023-07-29T10:05:10;28.10;99.90
23010;DHT22;11671;49.990;8.028;2023-07-29T10:07:39;28.00;99.90
23010;DHT22;11671;49.990;8.028;2023-07-29T10:10:07;27.80;99.90
23010;DHT22;11671;49.990;8.028;2023-07-29T10:12:34;27.70;99.90
23010;DHT22;11671;49.990;8.028;2023-07-29T10:15:04;27.40;99.90
23010;DHT22;11671;49.990;8.028;2023-07-29T10:17:34;27.20;99.90
23010;DHT22;11671;49.990;8.028;2023-07-29T10:20:00;26.70;99.90
23010;DHT22;11671;49.990;8.028;2023-07-29T10:22:34;26.30;99.90
23010;DHT22;11671;49.990;8.028;2023-07-29T10:25:04;25.90;99.90
23010;DHT22;11671;49.990;8.028;2023-07-29T10:27:37;25.40;99.90
23010;DHT22;11671;49.990;8.028;2023-07-29T10:30:03;25.00;99.90
23010;DHT22;11671;49.990;8.028;2023-07-29T10:32:30;25.20;99.90
23010;DHT22;11671;49.990;8.028;2023-07-29T10:34:56;25.50;99.90
23010;DHT22;11671;49.990;8.028;2023-07-29T10:37:22;25.60;99.90
23010;DHT22;11671;49.990;8.028;2023-07-29T10:39:53;25.90;99.90
23010;DHT22;11671;49.990;8.028;2023-07-29T10:42:19;26.20;99.90
23010;DHT22;11671;49.990;8.028;2023-07-29T10:44:50;26.40;99.90
23010;DHT22;11671;49.990;8.028;2023-07-29T10:47:26;26.50;99.90
23010;DHT22;11671;49.990;8.028;2023-07-29T10:49:53;26.70;99.90
23010;DHT22;11671;49.990;8.028;2023-07-29T10:55:01;27.00;99.90
23010;DHT22;11671;49.990;8.028;2023-07-29T10:59:58;27.00;99.90
23010;DHT22;11671;49.990;8.028;2023-07-29T11:02:31;27.10;99.90
23010;DHT22;11671;49.990;8.028;2023-07-29T11:04:57;27.30;99.90
23010;DHT22;11671;49.990;8.028;2023-07-29T11:07:23;27.80;99.90
23010;DHT22;11671;49.990;8.028;2023-07-29T11:09:53;28.00;99.90
23010;DHT22;11671;49.990;8.028;2023-07-29T11:15:18;27.90;99.90
23010;DHT22;11671;49.990;8.028;2023-07-29T11:17:50;27.70;99.90
23010;DHT22;11671;49.990;8.028;2023-07-29T11:20:18;27.60;99.90
23010;DHT22;11671;49.990;8.028;2023-07-29T11:22:43;27.50;99.90
23010;DHT22;11671;49.990;8.028;2023-07-29T11:25:11;27.40;99.90
23010;DHT22;11671;49.990;8.028;2023-07-29T11:27:38;27.00;99.90
23010;DHT22;11671;49.990;8.028;2023-07-29T11:30:06;27.00;99.90
23010;DHT22;11671;49.990;8.028;2023-07-29T11:32:32;27.30;99.90
23010;DHT22;11671;49.990;8.028;2023-07-29T11:35:13;27.40;99.90
23010;DHT22;11671;49.990;8.028;2023-07-29T11:37:40;27.70;99.90
23010;DHT22;11671;49.990;8.028;2023-07-29T11:40:07;27.60;99.90
23010;DHT22;11671;49.990;8.028;2023-07-29T11:42:34;27.40;99.90
23010;DHT22;11671;49.990;8.028;2023-07-29T11:45:01;27.60;99.90
23010;DHT22;11671;49.990;8.028;2023-07-29T11:47:27;27.80;99.90
23010;DHT22;11671;49.990;8.028;2023-07-29T11:49:53;27.90;99.90
23010;DHT22;11671;49.990;8.028;2023-07-29T11:52:19;27.90;99.90
23010;DHT22;11671;49.990;8.028;2023-07-29T11:54:49;27.80;99.90
23010;DHT22;11671;49.990;8.028;2023-07-29T11:57:16;27.90;99.90
23010;DHT22;11671;49.990;8.028;2023-07-29T11:59:42;28.00;99.90
23010;DHT22;11671;49.990;8.028;2023-07-29T12:02:12;28.10;99.90
23010;DHT22;11671;49.990;8.028;2023-07-29T12:04:39;28.40;99.90
23010;DHT22;11671;49.990;8.028;2023-07-29T12:07:05;28.60;99.90
23010;DHT22;11671;49.990;8.028;2023-07-29T12:09:31;28.90;99.90
23010;DHT22;11671;49.990;8.028;2023-07-29T12:11:58;29.00;99.90
23010;DHT22;11671;49.990;8.028;2023-07-29T12:14:29;29.30;99.90
23010;DHT22;11671;49.990;8.028;2023-07-29T12:16:55;29.10;99.90
23010;DHT22;11671;49.990;8.028;2023-07-29T12:19:20;28.90;99.90
23010;DHT22;11671;49.990;8.028;2023-07-29T12:21:48;29.00;99.90
23010;DHT22;11671;49.990;8.028;2023-07-29T12:24:15;29.10;99.90
23010;DHT22;11671;49.990;8.028;2023-07-29T12:26:41;28.70;99.90
23010;DHT22;11671;49.990;8.028;2023-07-29T12:29:18;28.30;99.90
23010;DHT22;11671;49.990;8.028;2023-07-29T12:31:46;27.90;99.90
23010;DHT22;11671;49.990;8.028;2023-07-29T12:34:19;27.60;99.90
23010;DHT22;11671;49.990;8.028;2023-07-29T12:36:50;27.30;99.90
23010;DHT22;11671;49.990;8.028;2023-07-29T12:39:20;27.40;99.90
23010;DHT22;11671;49.990;8.028;2023-07-29T12:41:46;27.40;99.90
23010;DHT22;11671;49.990;8.028;2023-07-29T12:44:15;27.50;99.90
23010;DHT22;11671;49.990;8.028;2023-07-29T12:46:41;27.60;99.90
23010;DHT22;11671;49.990;8.028;2023-07-29T12:49:14;27.70;99.90
23010;DHT22;11671;49.990;8.028;2023-07-29T12:51:40;27.70;99.90
23010;DHT22;11671;49.990;8.028;2023-07-29T12:54:06;27.60;99.90
23010;DHT22;11671;49.990;8.028;2023-07-29T12:56:33;27.50;99.90
23010;DHT22;11671;49.990;8.028;2023-07-29T12:59:00;27.30;99.90
23010;DHT22;11671;49.990;8.028;2023-07-29T13:01:27;27.20;99.90
23010;DHT22;11671;49.990;8.028;2023-07-29T13:03:54;27.20;99.90
23010;DHT22;11671;49.990;8.028;2023-07-29T13:06:20;27.30;99.90
23010;DHT22;11671;49.990;8.028;2023-07-29T13:08:46;27.30;99.90
23010;DHT22;11671;49.990;8.028;2023-07-29T13:11:12;27.40;99.90
23010;DHT22;11671;49.990;8.028;2023-07-29T13:13:38;27.60;99.90
23010;DHT22;11671;49.990;8.028;2023-07-29T13:16:04;27.90;99.90
23010;DHT22;11671;49.990;8.028;2023-07-29T13:18:34;27.90;99.90
23010;DHT22;11671;49.990;8.028;2023-07-29T13:21:00;27.80;99.90
23010;DHT22;11671;49.990;8.028;2023-07-29T13:23:26;28.00;99.90
23010;DHT22;11671;49.990;8.028;2023-07-29T13:25:53;28.20;99.90
23010;DHT22;11671;49.990;8.028;2023-07-29T13:28:18;28.40;99.90
23010;DHT22;11671;49.990;8.028;2023-07-29T13:30:44;28.60;99.90
23010;DHT22;11671;49.990;8.028;2023-07-29T13:33:10;28.60;99.90
23010;DHT22;11671;49.990;8.028;2023-07-29T13:35:36;28.40;99.90
23010;DHT22;11671;49.990;8.028;2023-07-29T13:38:02;28.40;99.90
23010;DHT22;11671;49.990;8.028;2023-07-29T13:40:28;28.70;99.90
23010;DHT22;11671;49.990;8.028;2023-07-29T13:42:54;28.60;99.90
23010;DHT22;11671;49.990;8.028;2023-07-29T13:45:20;28.60;99.90
23010;DHT22;11671;49.990;8.028;2023-07-29T13:47:47;28.90;99.90
23010;DHT22;11671;49.990;8.028;2023-07-29T13:50:12;28.80;99.90
23010;DHT22;11671;49.990;8.028;2023-07-29T13:52:38;28.80;99.90
23010;DHT22;11671;49.990;8.028;2023-07-29T13:55:08;28.80;99.90
23010;DHT22;11671;49.990;8.028;2023-07-29T13:57:33;28.90;99.90
23010;DHT22;11671;49.990;8.028;2023-07-29T13:59:59;29.00;99.90
23010;DHT22;11671;49.990;8.028;2023-07-29T14:02:25;29.00;99.90
23010;DHT22;11671;49.990;8.028;2023-07-29T14:04:56;29.00;99.90
23010;DHT22;11671;49.990;8.028;2023-07-29T14:07:22;29.00;99.90
23010;DHT22;11671;49.990;8.028;2023-07-29T14:09:47;28.70;99.90
23010;DHT22;11671;49.990;8.028;2023-07-29T14:12:13;28.70;99.90
23010;DHT22;11671;49.990;8.028;2023-07-29T14:14:40;28.80;99.90
23010;DHT22;11671;49.990;8.028;2023-07-29T14:17:06;29.00;99.90
23010;DHT22;11671;49.990;8.028;2023-07-29T14:19:34;28.80;99.90
23010;DHT22;11671;49.990;8.028;2023-07-29T14:21:59;29.10;99.90
23010;DHT22;11671;49.990;8.028;2023-07-29T14:24:25;29.10;99.90
23010;DHT22;11671;49.990;8.028;2023-07-29T14:26:51;28.80;99.90
23010;DHT22;11671;49.990;8.028;2023-07-29T14:29:16;28.70;99.90
23010;DHT22;11671;49.990;8.028;2023-07-29T14:31:42;28.60;99.90
23010;DHT22;11671;49.990;8.028;2023-07-29T14:34:07;28.90;99.90
23010;DHT22;11671;49.990;8.028;2023-07-29T14:36:33;29.10;99.90
23010;DHT22;11671;49.990;8.028;2023-07-29T14:38:59;28.90;99.90
23010;DHT22;11671;49.990;8.028;2023-07-29T14:41:24;28.80;99.90
23010;DHT22;11671;49.990;8.028;2023-07-29T14:43:50;28.60;99.90
23010;DHT22;11671;49.990;8.028;2023-07-29T14:46:15;28.50;99.90
23010;DHT22;11671;49.990;8.028;2023-07-29T14:48:41;28.50;99.90
23010;DHT22;11671;49.990;8.028;2023-07-29T14:51:07;28.80;99.90
23010;DHT22;11671;49.990;8.028;2023-07-29T14:53:32;29.10;99.90
23010;DHT22;11671;49.990;8.028;2023-07-29T14:55:58;29.40;99.90
23010;DHT22;11671;49.990;8.028;2023-07-29T14:58:24;29.30;99.90
23010;DHT22;11671;49.990;8.028;2023-07-29T15:00:51;29.10;99.90
23010;DHT22;11671;49.990;8.028;2023-07-29T15:03:17;28.80;99.90
23010;DHT22;11671;49.990;8.028;2023-07-29T15:05:42;28.70;99.90
23010;DHT22;11671;49.990;8.028;2023-07-29T15:08:08;28.60;99.90
23010;DHT22;11671;49.990;8.028;2023-07-29T15:10:34;28.80;99.90
23010;DHT22;11671;49.990;8.028;2023-07-29T15:13:00;29.00;99.90
23010;DHT22;11671;49.990;8.028;2023-07-29T15:15:25;29.10;99.90
23010;DHT22;11671;49.990;8.028;2023-07-29T15:17:51;29.30;99.90
23010;DHT22;11671;49.990;8.028;2023-07-29T15:20:16;29.50;99.90
23010;DHT22;11671;49.990;8.028;2023-07-29T15:22:42;29.70;99.90
23010;DHT22;11671;49.990;8.028;2023-07-29T15:25:09;29.60;99.90
23010;DHT22;11671;49.990;8.028;2023-07-29T15:27:35;29.80;99.90
23010;DHT22;11671;49.990;8.028;2023-07-29T15:30:01;29.80;99.90
23010;DHT22;11671;49.990;8.028;2023-07-29T15:32:26;29.60;99.90
23010;DHT22;11671;49.990;8.028;2023-07-29T15:34:53;29.50;99.90
23010;DHT22;11671;49.990;8.028;2023-07-29T15:37:19;29.40;99.90
23010;DHT22;11671;49.990;8.028;2023-07-29T15:39:44;29.20;99.90
23010;DHT22;11671;49.990;8.028;2023-07-29T15:42:10;29.10;99.90
23010;DHT22;11671;49.990;8.028;2023-07-29T15:44:35;29.30;99.90
23010;DHT22;11671;49.990;8.028;2023-07-29T15:47:03;29.40;99.90